sensor_id;sensor_type;location;lat;lon;timestamp;temperature;humidity
54409;DHT22;40315;48.620;9.828;2023-08-31T00:00:50;13.30;99.90
54409;DHT22;40315;48.620;9.828;2023-08-31T00:03:18;13.30;99.90
54409;DHT22;40315;48.620;9.828;2023-08-31T00:05:47;13.20;99.90
54409;DHT22;40315;48.620;9.828;2023-08-31T00:08:19;13.10;99.90
54409;DHT22;40315;48.620;9.828;2023-08-31T00:10:55;13.10;99.90
54409;DHT22;40315;48.620;9.828;2023-08-31T00:13:27;13.00;99.90
54409;DHT22;40315;48.620;9.828;2023-08-31T00:15:54;13.00;99.90
54409;DHT22;40315;48.620;9.828;2023-08-31T00:18:25;13.00;99.90
54409;DHT22;40315;48.620;9.828;2023-08-31T00:20:52;13.10;99.90
54409;DHT22;40315;48.620;9.828;2023-08-31T00:23:22;13.00;99.90
54409;DHT22;40315;48.620;9.828;2023-08-31T00:25:49;13.10;99.90
54409;DHT22;40315;48.620;9.828;2023-08-31T00:28:16;13.10;99.90
54409;DHT22;40315;48.620;9.828;2023-08-31T00:30:45;13.20;99.90
54409;DHT22;40315;48.620;9.828;2023-08-31T00:33:14;13.20;99.90
54409;DHT22;40315;48.620;9.828;2023-08-31T00:35:44;13.20;99.90
54409;DHT22;40315;48.620;9.828;2023-08-31T00:38:13;13.20;99.90
54409;DHT22;40315;48.620;9.828;2023-08-31T00:40:46;11.80;99.90
54409;DHT22;40315;48.620;9.828;2023-08-31T00:43:18;13.30;99.90
54409;DHT22;40315;48.620;9.828;2023-08-31T00:45:50;13.20;99.90
54409;DHT22;40315;48.620;9.828;2023-08-31T00:48:19;13.40;99.90
54409;DHT22;40315;48.620;9.828;2023-08-31T00:50:47;13.40;99.90
54409;DHT22;40315;48.620;9.828;2023-08-31T00:53:17;13.30;99.90
54409;DHT22;40315;48.620;9.828;2023-08-31T00:55:47;13.30;99.90
54409;DHT22;40315;48.620;9.828;2023-08-31T01:03:49;13.40;99.90
54409;DHT22;40315;48.620;9.828;2023-08-31T01:06:23;13.30;99.90
54409;DHT22;40315;48.620;9.828;2023-08-31T01:08:59;13.50;99.90
54409;DHT22;40315;48.620;9.828;2023-08-31T01:11:40;13.60;99.90
54409;DHT22;40315;48.620;9.828;2023-08-31T01:14:15;13.50;99.90
54409;DHT22;40315;48.620;9.828;2023-08-31T01:16:44;13.50;99.90
54409;DHT22;40315;48.620;9.828;2023-08-31T01:19:29;13.50;99.90
54409;DHT22;40315;48.620;9.828;2023-08-31T01:22:00;13.40;99.90
54409;DHT22;40315;48.620;9.828;2023-08-31T01:24:28;13.40;99.90
54409;DHT22;40315;48.620;9.828;2023-08-31T01:26:56;13.40;99.90
54409;DHT22;40315;48.620;9.828;2023-08-31T01:29:23;13.30;99.90
54409;DHT22;40315;48.620;9.828;2023-08-31T01:31:51;13.40;99.90
54409;DHT22;40315;48.620;9.828;2023-08-31T01:34:18;13.30;99.90
54409;DHT22;40315;48.620;9.828;2023-08-31T01:36:48;13.30;99.90
54409;DHT22;40315;48.620;9.828;2023-08-31T01:39:23;13.30;99.90
54409;DHT22;40315;48.620;9.828;2023-08-31T01:41:57;13.30;99.90
54409;DHT22;40315;48.620;9.828;2023-08-31T01:44:29;13.20;99.90
54409;DHT22;40315;48.620;9.828;2023-08-31T01:47:03;13.10;99.90
54409;DHT22;40315;48.620;9.828;2023-08-31T02:11:00;12.70;99.90
54409;DHT22;40315;48.620;9.828;2023-08-31T02:13:27;12.70;99.90
54409;DHT22;40315;48.620;9.828;2023-08-31T02:15:57;12.70;99.90
54409;DHT22;40315;48.620;9.828;2023-08-31T02:18:26;12.60;99.90
54409;DHT22;40315;48.620;9.828;2023-08-31T02:20:54;12.40;99.90
54409;DHT22;40315;48.620;9.828;2023-08-31T02:23:21;12.40;99.90
54409;DHT22;40315;48.620;9.828;2023-08-31T02:25:51;12.50;99.90
54409;DHT22;40315;48.620;9.828;2023-08-31T02:28:19;12.30;99.90
54409;DHT22;40315;48.620;9.828;2023-08-31T02:30:57;12.30;99.90
54409;DHT22;40315;48.620;9.828;2023-08-31T02:33:25;12.40;99.90
54409;DHT22;40315;48.620;9.828;2023-08-31T02:35:53;12.50;99.90
54409;DHT22;40315;48.620;9.828;2023-08-31T02:38:20;12.50;99.90
54409;DHT22;40315;48.620;9.828;2023-08-31T02:40:49;12.50;99.90
54409;DHT22;40315;48.620;9.828;2023-08-31T02:43:21;12.40;99.90
54409;DHT22;40315;48.620;9.828;2023-08-31T02:45:49;12.30;99.90
54409;DHT22;40315;48.620;9.828;2023-08-31T02:48:18;12.30;99.90
54409;DHT22;40315;48.620;9.828;2023-08-31T02:50:45;12.20;99.90
54409;DHT22;40315;48.620;9.828;2023-08-31T02:55:41;12.40;99.90
54409;DHT22;40315;48.620;9.828;2023-08-31T02:58:08;12.20;99.90
54409;DHT22;40315;48.620;9.828;2023-08-31T03:00:37;12.30;99.90
54409;DHT22;40315;48.620;9.828;2023-08-31T03:03:11;12.20;99.90
54409;DHT22;40315;48.620;9.828;2023-08-31T03:05:38;12.00;99.90
54409;DHT22;40315;48.620;9.828;2023-08-31T03:08:05;11.90;99.90
54409;DHT22;40315;48.620;9.828;2023-08-31T03:10:32;11.80;99.90
54409;DHT22;40315;48.620;9.828;2023-08-31T03:13:02;11.90;99.90
54409;DHT22;40315;48.620;9.828;2023-08-31T03:15:32;11.90;99.90
54409;DHT22;40315;48.620;9.828;2023-08-31T03:18:00;11.80;99.90
54409;DHT22;40315;48.620;9.828;2023-08-31T03:20:28;11.80;99.90
54409;DHT22;40315;48.620;9.828;2023-08-31T03:22:56;11.90;99.90
54409;DHT22;40315;48.620;9.828;2023-08-31T03:25:23;11.80;99.90
54409;DHT22;40315;48.620;9.828;2023-08-31T03:27:50;11.90;99.90
54409;DHT22;40315;48.620;9.828;2023-08-31T03:30:20;12.00;99.90
54409;DHT22;40315;48.620;9.828;2023-08-31T03:32:49;11.90;99.90
54409;DHT22;40315;48.620;9.828;2023-08-31T03:35:18;11.90;99.90
54409;DHT22;40315;48.620;9.828;2023-08-31T03:37:47;12.10;99.90
54409;DHT22;40315;48.620;9.828;2023-08-31T03:40:17;12.10;99.90
54409;DHT22;40315;48.620;9.828;2023-08-31T03:42:44;12.20;99.90
54409;DHT22;40315;48.620;9.828;2023-08-31T03:45:11;12.00;99.90
54409;DHT22;40315;48.620;9.828;2023-08-31T03:47:38;11.80;99.90
54409;DHT22;40315;48.620;9.828;2023-08-31T03:50:06;11.70;99.90
54409;DHT22;40315;48.620;9.828;2023-08-31T03:52:35;11.70;99.90
54409;DHT22;40315;48.620;9.828;2023-08-31T03:55:03;11.60;99.90
54409;DHT22;40315;48.620;9.828;2023-08-31T03:57:30;11.60;99.90
54409;DHT22;40315;48.620;9.828;2023-08-31T04:00:04;11.60;99.90
54409;DHT22;40315;48.620;9.828;2023-08-31T04:02:42;11.50;99.90
54409;DHT22;40315;48.620;9.828;2023-08-31T04:05:09;12.60;99.90
54409;DHT22;40315;48.620;9.828;2023-08-31T04:07:37;11.40;99.90
54409;DHT22;40315;48.620;9.828;2023-08-31T04:10:05;11.40;99.90
54409;DHT22;40315;48.620;9.828;2023-08-31T04:12:32;11.30;99.90
54409;DHT22;40315;48.620;9.828;2023-08-31T04:15:00;11.40;99.90
54409;DHT22;40315;48.620;9.828;2023-08-31T04:17:29;11.40;99.90
54409;DHT22;40315;48.620;9.828;2023-08-31T04:19:58;11.60;99.90
54409;DHT22;40315;48.620;9.828;2023-08-31T04:22:26;11.60;99.90
54409;DHT22;40315;48.620;9.828;2023-08-31T04:24:57;11.70;99.90
54409;DHT22;40315;48.620;9.828;2023-08-31T04:27:24;11.90;99.90
54409;DHT22;40315;48.620;9.828;2023-08-31T04:29:50;12.90;99.90
54409;DHT22;40315;48.620;9.828;2023-08-31T04:32:17;11.80;99.90
54409;DHT22;40315;48.620;9.828;2023-08-31T04:34:44;11.60;99.90
54409;DHT22;40315;48.620;9.828;2023-08-31T04:37:12;11.50;99.90
54409;DHT22;40315;48.620;9.828;2023-08-31T04:39:39;11.60;99.90
54409;DHT22;40315;48.620;9.828;2023-08-31T04:42:07;11.70;99.90
54409;DHT22;40315;48.620;9.828;2023-08-31T04:44:36;11.70;99.90
54409;DHT22;40315;48.620;9.828;2023-08-31T04:47:04;11.80;99.90
54409;DHT22;40315;48.620;9.828;2023-08-31T04:49:31;11.70;99.90
54409;DHT22;40315;48.620;9.828;2023-08-31T04:51:58;11.60;99.90
54409;DHT22;40315;48.620;9.828;2023-08-31T04:56:52;11.40;99.90
54409;DHT22;40315;48.620;9.828;2023-08-31T05:01:48;11.70;99.90
54409;DHT22;40315;48.620;9.828;2023-08-31T05:04:15;11.80;99.90
54409;DHT22;40315;48.620;9.828;2023-08-31T05:09:09;11.70;99.90
54409;DHT22;40315;48.620;9.828;2023-08-31T05:11:36;11.80;99.90
54409;DHT22;40315;48.620;9.828;2023-08-31T05:14:05;11.70;99.90
54409;DHT22;40315;48.620;9.828;2023-08-31T05:19:01;11.80;99.90
54409;DHT22;40315;48.620;9.828;2023-08-31T05:23:58;11.90;99.90
54409;DHT22;40315;48.620;9.828;2023-08-31T05:26:25;11.80;99.90
54409;DHT22;40315;48.620;9.828;2023-08-31T05:28:52;12.10;99.90
54409;DHT22;40315;48.620;9.828;2023-08-31T05:31:19;12.00;99.90
54409;DHT22;40315;48.620;9.828;2023-08-31T05:36:17;12.00;99.90
54409;DHT22;40315;48.620;9.828;2023-08-31T05:38:44;12.00;99.90
54409;DHT22;40315;48.620;9.828;2023-08-31T05:46:06;12.20;99.90
54409;DHT22;40315;48.620;9.828;2023-08-31T05:48:34;12.20;99.90
54409;DHT22;40315;48.620;9.828;2023-08-31T05:51:03;12.40;99.90
54409;DHT22;40315;48.620;9.828;2023-08-31T05:53:30;12.50;99.90
54409;DHT22;40315;48.620;9.828;2023-08-31T05:58:32;12.60;99.90
54409;DHT22;40315;48.620;9.828;2023-08-31T06:00:59;12.80;99.90
54409;DHT22;40315;48.620;9.828;2023-08-31T06:03:26;12.80;99.90
54409;DHT22;40315;48.620;9.828;2023-08-31T06:08:25;12.90;99.90
54409;DHT22;40315;48.620;9.828;2023-08-31T06:10:54;13.00;99.90
54409;DHT22;40315;48.620;9.828;2023-08-31T06:13:21;13.10;99.90
54409;DHT22;40315;48.620;9.828;2023-08-31T06:15:48;13.10;99.90
54409;DHT22;40315;48.620;9.828;2023-08-31T06:18:18;13.10;99.90
54409;DHT22;40315;48.620;9.828;2023-08-31T06:20:49;13.40;99.90
54409;DHT22;40315;48.620;9.828;2023-08-31T06:23:16;13.20;99.90
54409;DHT22;40315;48.620;9.828;2023-08-31T06:25:44;13.20;99.90
54409;DHT22;40315;48.620;9.828;2023-08-31T06:28:12;13.10;99.90
54409;DHT22;40315;48.620;9.828;2023-08-31T06:30:40;13.10;99.90
54409;DHT22;40315;48.620;9.828;2023-08-31T06:33:11;13.10;99.90
54409;DHT22;40315;48.620;9.828;2023-08-31T06:35:38;13.10;99.90
54409;DHT22;40315;48.620;9.828;2023-08-31T06:38:05;13.20;99.90
54409;DHT22;40315;48.620;9.828;2023-08-31T06:40:32;13.20;99.90
54409;DHT22;40315;48.620;9.828;2023-08-31T06:43:01;13.20;99.90
54409;DHT22;40315;48.620;9.828;2023-08-31T06:45:31;14.20;99.90
54409;DHT22;40315;48.620;9.828;2023-08-31T06:48:01;13.20;99.90
54409;DHT22;40315;48.620;9.828;2023-08-31T06:50:28;13.20;99.90
54409;DHT22;40315;48.620;9.828;2023-08-31T06:52:54;13.20;99.90
54409;DHT22;40315;48.620;9.828;2023-08-31T06:55:21;13.30;99.90
54409;DHT22;40315;48.620;9.828;2023-08-31T07:00:19;13.40;99.90
54409;DHT22;40315;48.620;9.828;2023-08-31T07:02:46;13.70;99.90
54409;DHT22;40315;48.620;9.828;2023-08-31T07:10:16;14.90;99.90
54409;DHT22;40315;48.620;9.828;2023-08-31T07:12:42;15.40;99.90
54409;DHT22;40315;48.620;9.828;2023-08-31T07:20:12;16.10;99.90
54409;DHT22;40315;48.620;9.828;2023-08-31T07:22:49;15.60;99.90
54409;DHT22;40315;48.620;9.828;2023-08-31T07:25:25;15.60;99.90
54409;DHT22;40315;48.620;9.828;2023-08-31T07:37:43;15.50;99.90
54409;DHT22;40315;48.620;9.828;2023-08-31T07:40:11;15.90;99.90
54409;DHT22;40315;48.620;9.828;2023-08-31T07:42:38;16.00;99.90
54409;DHT22;40315;48.620;9.828;2023-08-31T07:45:06;16.20;99.90
54409;DHT22;40315;48.620;9.828;2023-08-31T07:47:33;16.20;99.90
54409;DHT22;40315;48.620;9.828;2023-08-31T07:50:05;16.60;99.90
54409;DHT22;40315;48.620;9.828;2023-08-31T07:52:32;16.70;99.90
54409;DHT22;40315;48.620;9.828;2023-08-31T07:55:00;16.90;99.90
54409;DHT22;40315;48.620;9.828;2023-08-31T07:57:27;16.90;99.90
54409;DHT22;40315;48.620;9.828;2023-08-31T07:59:57;17.30;99.90
54409;DHT22;40315;48.620;9.828;2023-08-31T08:02:23;17.20;99.90
54409;DHT22;40315;48.620;9.828;2023-08-31T08:04:50;17.30;99.90
54409;DHT22;40315;48.620;9.828;2023-08-31T08:09:48;17.00;99.90
54409;DHT22;40315;48.620;9.828;2023-08-31T08:12:15;16.80;99.90
54409;DHT22;40315;48.620;9.828;2023-08-31T08:14:42;16.80;99.90
54409;DHT22;40315;48.620;9.828;2023-08-31T08:17:09;16.50;99.90
54409;DHT22;40315;48.620;9.828;2023-08-31T08:19:36;15.90;99.90
54409;DHT22;40315;48.620;9.828;2023-08-31T08:22:03;15.60;99.90
54409;DHT22;40315;48.620;9.828;2023-08-31T08:24:32;15.80;99.90
54409;DHT22;40315;48.620;9.828;2023-08-31T08:26:59;15.90;99.90
54409;DHT22;40315;48.620;9.828;2023-08-31T08:29:26;16.30;99.90
54409;DHT22;40315;48.620;9.828;2023-08-31T08:31:52;16.60;99.90
54409;DHT22;40315;48.620;9.828;2023-08-31T08:36:47;17.20;99.90
54409;DHT22;40315;48.620;9.828;2023-08-31T08:39:14;17.40;99.90
54409;DHT22;40315;48.620;9.828;2023-08-31T08:41:43;17.70;99.90
54409;DHT22;40315;48.620;9.828;2023-08-31T08:44:13;17.60;99.90
54409;DHT22;40315;48.620;9.828;2023-08-31T08:46:44;17.70;99.90
54409;DHT22;40315;48.620;9.828;2023-08-31T08:51:39;17.10;99.90
54409;DHT22;40315;48.620;9.828;2023-08-31T08:54:08;17.10;99.90
54409;DHT22;40315;48.620;9.828;2023-08-31T08:56:35;17.60;99.90
54409;DHT22;40315;48.620;9.828;2023-08-31T08:59:03;17.80;99.90
54409;DHT22;40315;48.620;9.828;2023-08-31T09:01:30;17.90;99.90
54409;DHT22;40315;48.620;9.828;2023-08-31T09:03:58;17.90;99.90
54409;DHT22;40315;48.620;9.828;2023-08-31T09:06:27;17.70;99.90
54409;DHT22;40315;48.620;9.828;2023-08-31T09:08:55;17.50;99.90
54409;DHT22;40315;48.620;9.828;2023-08-31T09:11:23;17.50;99.90
54409;DHT22;40315;48.620;9.828;2023-08-31T09:13:51;17.10;99.90
54409;DHT22;40315;48.620;9.828;2023-08-31T09:16:25;16.90;99.90
54409;DHT22;40315;48.620;9.828;2023-08-31T09:18:56;16.90;99.90
54409;DHT22;40315;48.620;9.828;2023-08-31T09:21:34;17.00;99.90
54409;DHT22;40315;48.620;9.828;2023-08-31T09:24:02;17.50;99.90
54409;DHT22;40315;48.620;9.828;2023-08-31T09:26:37;18.30;99.90
54409;DHT22;40315;48.620;9.828;2023-08-31T09:29:04;18.30;99.90
54409;DHT22;40315;48.620;9.828;2023-08-31T09:31:32;18.30;99.90
54409;DHT22;40315;48.620;9.828;2023-08-31T09:33:59;18.50;99.90
54409;DHT22;40315;48.620;9.828;2023-08-31T09:36:28;18.50;99.90
54409;DHT22;40315;48.620;9.828;2023-08-31T09:38:59;18.30;99.90
54409;DHT22;40315;48.620;9.828;2023-08-31T09:41:26;18.30;99.90
54409;DHT22;40315;48.620;9.828;2023-08-31T09:43:53;18.20;99.90
54409;DHT22;40315;48.620;9.828;2023-08-31T09:46:20;18.40;99.90
54409;DHT22;40315;48.620;9.828;2023-08-31T09:48:49;18.60;99.90
54409;DHT22;40315;48.620;9.828;2023-08-31T09:51:20;19.20;99.90
54409;DHT22;40315;48.620;9.828;2023-08-31T09:53:53;19.20;99.90
54409;DHT22;40315;48.620;9.828;2023-08-31T09:56:22;19.30;99.90
54409;DHT22;40315;48.620;9.828;2023-08-31T09:58:50;18.10;99.90
54409;DHT22;40315;48.620;9.828;2023-08-31T10:01:18;17.90;99.90
54409;DHT22;40315;48.620;9.828;2023-08-31T10:06:14;18.50;99.90
54409;DHT22;40315;48.620;9.828;2023-08-31T10:08:46;18.70;99.90
54409;DHT22;40315;48.620;9.828;2023-08-31T10:13:44;18.50;99.90
54409;DHT22;40315;48.620;9.828;2023-08-31T10:18:41;19.10;99.90
54409;DHT22;40315;48.620;9.828;2023-08-31T10:21:09;19.70;99.90
54409;DHT22;40315;48.620;9.828;2023-08-31T10:23:44;19.80;99.90
54409;DHT22;40315;48.620;9.828;2023-08-31T10:26:11;20.10;99.90
54409;DHT22;40315;48.620;9.828;2023-08-31T10:28:40;20.20;99.90
54409;DHT22;40315;48.620;9.828;2023-08-31T10:31:08;20.40;99.90
54409;DHT22;40315;48.620;9.828;2023-08-31T10:33:39;18.90;99.90
54409;DHT22;40315;48.620;9.828;2023-08-31T10:36:10;18.70;99.90
54409;DHT22;40315;48.620;9.828;2023-08-31T10:38:39;18.40;99.90
54409;DHT22;40315;48.620;9.828;2023-08-31T10:41:20;18.40;99.90
54409;DHT22;40315;48.620;9.828;2023-08-31T10:43:51;18.30;99.90
54409;DHT22;40315;48.620;9.828;2023-08-31T10:46:25;18.10;99.90
54409;DHT22;40315;48.620;9.828;2023-08-31T10:48:55;18.10;99.90
54409;DHT22;40315;48.620;9.828;2023-08-31T10:51:26;18.20;99.90
54409;DHT22;40315;48.620;9.828;2023-08-31T10:54:08;18.10;99.90
54409;DHT22;40315;48.620;9.828;2023-08-31T10:57:00;18.20;99.90
54409;DHT22;40315;48.620;9.828;2023-08-31T10:59:44;17.90;99.90
54409;DHT22;40315;48.620;9.828;2023-08-31T11:02:28;17.70;99.90
54409;DHT22;40315;48.620;9.828;2023-08-31T11:05:00;17.70;99.90
54409;DHT22;40315;48.620;9.828;2023-08-31T11:07:31;17.50;99.90
54409;DHT22;40315;48.620;9.828;2023-08-31T11:10:10;17.50;99.90
54409;DHT22;40315;48.620;9.828;2023-08-31T11:12:39;17.90;99.90
54409;DHT22;40315;48.620;9.828;2023-08-31T11:15:08;17.90;99.90
54409;DHT22;40315;48.620;9.828;2023-08-31T11:17:36;18.10;99.90
54409;DHT22;40315;48.620;9.828;2023-08-31T11:20:06;18.10;99.90
54409;DHT22;40315;48.620;9.828;2023-08-31T11:22:38;17.90;99.90
54409;DHT22;40315;48.620;9.828;2023-08-31T11:25:08;17.70;99.90
54409;DHT22;40315;48.620;9.828;2023-08-31T11:27:36;17.80;99.90
54409;DHT22;40315;48.620;9.828;2023-08-31T11:32:31;17.50;99.90
54409;DHT22;40315;48.620;9.828;2023-08-31T11:34:58;17.60;99.90
54409;DHT22;40315;48.620;9.828;2023-08-31T11:37:26;17.60;99.90
54409;DHT22;40315;48.620;9.828;2023-08-31T11:39:53;17.50;99.90
54409;DHT22;40315;48.620;9.828;2023-08-31T11:42:24;17.40;99.90
54409;DHT22;40315;48.620;9.828;2023-08-31T11:44:53;17.70;99.90
54409;DHT22;40315;48.620;9.828;2023-08-31T11:47:22;18.30;99.90
54409;DHT22;40315;48.620;9.828;2023-08-31T11:49:50;18.40;99.90
54409;DHT22;40315;48.620;9.828;2023-08-31T11:52:19;18.20;99.90
54409;DHT22;40315;48.620;9.828;2023-08-31T11:57:19;17.50;99.90
54409;DHT22;40315;48.620;9.828;2023-08-31T11:59:53;17.50;99.90
54409;DHT22;40315;48.620;9.828;2023-08-31T12:02:21;17.70;99.90
54409;DHT22;40315;48.620;9.828;2023-08-31T12:04:48;17.80;99.90
54409;DHT22;40315;48.620;9.828;2023-08-31T12:09:47;19.20;99.90
54409;DHT22;40315;48.620;9.828;2023-08-31T12:12:20;19.30;99.90
54409;DHT22;40315;48.620;9.828;2023-08-31T12:14:52;19.40;99.90
54409;DHT22;40315;48.620;9.828;2023-08-31T12:17:22;19.70;99.90
54409;DHT22;40315;48.620;9.828;2023-08-31T12:19:49;19.40;99.90
54409;DHT22;40315;48.620;9.828;2023-08-31T12:22:16;19.40;99.90
54409;DHT22;40315;48.620;9.828;2023-08-31T12:24:43;19.10;99.90
54409;DHT22;40315;48.620;9.828;2023-08-31T12:27:10;19.10;99.90
54409;DHT22;40315;48.620;9.828;2023-08-31T12:29:37;19.40;99.90
54409;DHT22;40315;48.620;9.828;2023-08-31T12:32:05;19.10;99.90
54409;DHT22;40315;48.620;9.828;2023-08-31T12:37:03;18.80;99.90
54409;DHT22;40315;48.620;9.828;2023-08-31T12:39:32;19.10;99.90
54409;DHT22;40315;48.620;9.828;2023-08-31T12:41:59;18.80;99.90
54409;DHT22;40315;48.620;9.828;2023-08-31T12:44:26;18.70;99.90
54409;DHT22;40315;48.620;9.828;2023-08-31T12:46:53;18.80;99.90
54409;DHT22;40315;48.620;9.828;2023-08-31T12:49:20;19.10;99.90
54409;DHT22;40315;48.620;9.828;2023-08-31T12:51:50;19.30;99.90
54409;DHT22;40315;48.620;9.828;2023-08-31T12:54:17;20.00;99.90
54409;DHT22;40315;48.620;9.828;2023-08-31T12:56:44;20.70;99.90
54409;DHT22;40315;48.620;9.828;2023-08-31T12:59:13;20.90;99.90
54409;DHT22;40315;48.620;9.828;2023-08-31T13:01:40;21.00;99.90
54409;DHT22;40315;48.620;9.828;2023-08-31T13:04:07;20.60;99.90
54409;DHT22;40315;48.620;9.828;2023-08-31T13:06:34;20.30;99.90
54409;DHT22;40315;48.620;9.828;2023-08-31T13:09:03;20.40;99.90
54409;DHT22;40315;48.620;9.828;2023-08-31T13:11:34;22.00;99.90
54409;DHT22;40315;48.620;9.828;2023-08-31T13:14:03;20.40;99.90
54409;DHT22;40315;48.620;9.828;2023-08-31T13:16:30;20.30;99.90
54409;DHT22;40315;48.620;9.828;2023-08-31T13:18:57;20.40;99.90
54409;DHT22;40315;48.620;9.828;2023-08-31T13:21:26;20.40;99.90
54409;DHT22;40315;48.620;9.828;2023-08-31T13:23:53;20.50;99.90
54409;DHT22;40315;48.620;9.828;2023-08-31T13:26:22;20.80;99.90
54409;DHT22;40315;48.620;9.828;2023-08-31T13:28:49;21.20;99.90
54409;DHT22;40315;48.620;9.828;2023-08-31T13:31:16;21.60;99.90
54409;DHT22;40315;48.620;9.828;2023-08-31T13:33:43;21.70;99.90
54409;DHT22;40315;48.620;9.828;2023-08-31T13:36:10;21.80;99.90
54409;DHT22;40315;48.620;9.828;2023-08-31T13:38:37;22.30;99.90
54409;DHT22;40315;48.620;9.828;2023-08-31T13:41:04;22.30;99.90
54409;DHT22;40315;48.620;9.828;2023-08-31T13:46:03;22.50;99.90
54409;DHT22;40315;48.620;9.828;2023-08-31T13:48:31;22.40;99.90
54409;DHT22;40315;48.620;9.828;2023-08-31T13:50:58;22.50;99.90
54409;DHT22;40315;48.620;9.828;2023-08-31T13:53:25;22.40;99.90
54409;DHT22;40315;48.620;9.828;2023-08-31T13:55:52;21.90;99.90
54409;DHT22;40315;48.620;9.828;2023-08-31T14:00:48;22.70;99.90
54409;DHT22;40315;48.620;9.828;2023-08-31T14:03:15;22.70;99.90
54409;DHT22;40315;48.620;9.828;2023-08-31T14:05:47;23.00;99.90
54409;DHT22;40315;48.620;9.828;2023-08-31T14:10:44;23.00;99.90
54409;DHT22;40315;48.620;9.828;2023-08-31T14:13:11;23.00;99.90
54409;DHT22;40315;48.620;9.828;2023-08-31T14:15:38;22.70;98.50
54409;DHT22;40315;48.620;9.828;2023-08-31T14:18:15;22.20;99.90
54409;DHT22;40315;48.620;9.828;2023-08-31T14:20:42;22.10;99.90
54409;DHT22;40315;48.620;9.828;2023-08-31T14:28:06;21.10;99.90
54409;DHT22;40315;48.620;9.828;2023-08-31T14:30:35;20.60;99.90
54409;DHT22;40315;48.620;9.828;2023-08-31T14:33:05;20.60;99.90
54409;DHT22;40315;48.620;9.828;2023-08-31T14:35:36;21.00;99.90
54409;DHT22;40315;48.620;9.828;2023-08-31T14:38:06;21.50;99.90
54409;DHT22;40315;48.620;9.828;2023-08-31T14:40:34;21.90;99.90
54409;DHT22;40315;48.620;9.828;2023-08-31T14:43:05;21.50;99.90
54409;DHT22;40315;48.620;9.828;2023-08-31T14:45:32;21.50;99.90
54409;DHT22;40315;48.620;9.828;2023-08-31T14:47:59;21.50;99.90
54409;DHT22;40315;48.620;9.828;2023-08-31T14:52:55;21.60;99.90
54409;DHT22;40315;48.620;9.828;2023-08-31T14:55:22;21.80;99.90
54409;DHT22;40315;48.620;9.828;2023-08-31T14:57:49;21.90;99.90
54409;DHT22;40315;48.620;9.828;2023-08-31T15:00:16;21.90;99.40
54409;DHT22;40315;48.620;9.828;2023-08-31T15:02:46;21.80;99.90
54409;DHT22;40315;48.620;9.828;2023-08-31T15:05:16;21.60;99.70
54409;DHT22;40315;48.620;9.828;2023-08-31T15:07:46;21.50;99.90
54409;DHT22;40315;48.620;9.828;2023-08-31T15:10:14;19.60;99.90
54409;DHT22;40315;48.620;9.828;2023-08-31T15:12:42;21.10;99.90
54409;DHT22;40315;48.620;9.828;2023-08-31T15:15:12;21.20;99.90
54409;DHT22;40315;48.620;9.828;2023-08-31T15:17:39;21.10;99.90
54409;DHT22;40315;48.620;9.828;2023-08-31T15:20:07;21.10;99.90
54409;DHT22;40315;48.620;9.828;2023-08-31T15:22:35;21.30;99.90
54409;DHT22;40315;48.620;9.828;2023-08-31T15:25:02;21.50;99.90
54409;DHT22;40315;48.620;9.828;2023-08-31T15:27:32;21.60;99.90
54409;DHT22;40315;48.620;9.828;2023-08-31T15:29:59;21.30;99.90
54409;DHT22;40315;48.620;9.828;2023-08-31T15:34:53;21.10;99.90
54409;DHT22;40315;48.620;9.828;2023-08-31T15:37:20;21.00;99.90
54409;DHT22;40315;48.620;9.828;2023-08-31T15:39:47;21.00;99.90
54409;DHT22;40315;48.620;9.828;2023-08-31T15:42:17;20.70;99.90
54409;DHT22;40315;48.620;9.828;2023-08-31T15:44:48;20.80;99.90
54409;DHT22;40315;48.620;9.828;2023-08-31T15:49:43;20.20;99.90
54409;DHT22;40315;48.620;9.828;2023-08-31T15:52:12;20.10;99.90
54409;DHT22;40315;48.620;9.828;2023-08-31T15:54:39;20.00;99.90
54409;DHT22;40315;48.620;9.828;2023-08-31T15:57:08;20.00;99.90
54409;DHT22;40315;48.620;9.828;2023-08-31T15:59:35;19.80;99.90
54409;DHT22;40315;48.620;9.828;2023-08-31T16:02:06;19.70;99.90
54409;DHT22;40315;48.620;9.828;2023-08-31T16:04:33;19.80;99.90
54409;DHT22;40315;48.620;9.828;2023-08-31T16:07:01;19.80;99.90
54409;DHT22;40315;48.620;9.828;2023-08-31T16:09:28;19.80;99.90
54409;DHT22;40315;48.620;9.828;2023-08-31T16:11:56;19.60;99.90
54409;DHT22;40315;48.620;9.828;2023-08-31T16:14:23;19.60;99.90
54409;DHT22;40315;48.620;9.828;2023-08-31T16:16:52;19.60;99.90
54409;DHT22;40315;48.620;9.828;2023-08-31T16:19:22;19.40;99.90
54409;DHT22;40315;48.620;9.828;2023-08-31T16:21:52;19.30;99.90
54409;DHT22;40315;48.620;9.828;2023-08-31T16:24:19;19.40;99.90
54409;DHT22;40315;48.620;9.828;2023-08-31T16:26:46;19.30;99.90
54409;DHT22;40315;48.620;9.828;2023-08-31T16:29:13;19.30;99.90
54409;DHT22;40315;48.620;9.828;2023-08-31T16:34:13;19.00;99.90
54409;DHT22;40315;48.620;9.828;2023-08-31T16:36:41;18.80;99.90
54409;DHT22;40315;48.620;9.828;2023-08-31T16:39:08;18.70;99.90
54409;DHT22;40315;48.620;9.828;2023-08-31T16:41:35;18.80;99.90
54409;DHT22;40315;48.620;9.828;2023-08-31T16:44:03;18.70;99.90
54409;DHT22;40315;48.620;9.828;2023-08-31T16:46:32;18.70;99.90
54409;DHT22;40315;48.620;9.828;2023-08-31T16:48:59;18.70;99.90
54409;DHT22;40315;48.620;9.828;2023-08-31T16:51:27;18.70;99.90
54409;DHT22;40315;48.620;9.828;2023-08-31T16:53:57;18.80;99.90
54409;DHT22;40315;48.620;9.828;2023-08-31T16:56:24;18.70;99.90
54409;DHT22;40315;48.620;9.828;2023-08-31T16:58:51;18.70;99.90
54409;DHT22;40315;48.620;9.828;2023-08-31T17:01:19;18.60;99.90
54409;DHT22;40315;48.620;9.828;2023-08-31T17:03:46;18.70;99.90
54409;DHT22;40315;48.620;9.828;2023-08-31T17:06:14;18.60;99.90
54409;DHT22;40315;48.620;9.828;2023-08-31T17:08:41;18.50;99.90
54409;DHT22;40315;48.620;9.828;2023-08-31T17:11:09;18.40;99.90
54409;DHT22;40315;48.620;9.828;2023-08-31T17:13:37;18.40;99.90
54409;DHT22;40315;48.620;9.828;2023-08-31T17:16:08;18.40;99.90
54409;DHT22;40315;48.620;9.828;2023-08-31T17:18:35;18.50;99.90
54409;DHT22;40315;48.620;9.828;2023-08-31T17:21:02;18.50;99.90
54409;DHT22;40315;48.620;9.828;2023-08-31T17:23:30;18.50;99.90
54409;DHT22;40315;48.620;9.828;2023-08-31T17:25:59;18.40;99.90
54409;DHT22;40315;48.620;9.828;2023-08-31T17:28:27;18.20;99.90
54409;DHT22;40315;48.620;9.828;2023-08-31T17:30:57;18.10;99.90
54409;DHT22;40315;48.620;9.828;2023-08-31T17:33:25;17.90;99.90
54409;DHT22;40315;48.620;9.828;2023-08-31T17:35:56;18.00;99.90
54409;DHT22;40315;48.620;9.828;2023-08-31T17:38:23;18.00;99.90
54409;DHT22;40315;48.620;9.828;2023-08-31T17:40:50;18.00;99.90
54409;DHT22;40315;48.620;9.828;2023-08-31T17:43:19;18.00;99.90